createdAt,value
2023-02-14T00:01:28.117Z,100.00
2023-02-14T00:04:00.896Z,100.00
2023-02-14T00:06:32.801Z,100.00
2023-02-14T00:09:02.296Z,100.00
2023-02-14T00:11:34.456Z,100.00
2023-02-14T00:14:23.437Z,100.00
2023-02-14T00:16:52.947Z,100.00
2023-02-14T00:19:23.085Z,100.00
2023-02-14T00:21:52.725Z,100.00
2023-02-14T00:24:24.256Z,100.00
2023-02-14T00:26:53.789Z,100.00
2023-02-14T00:29:54.463Z,100.00
2023-02-14T00:32:41.967Z,100.00
2023-02-14T00:35:18.511Z,100.00
2023-02-14T00:37:50.008Z,100.00
2023-02-14T00:41:02.298Z,100.00
2023-02-14T00:43:32.746Z,100.00
2023-02-14T00:46:31.370Z,100.00
2023-02-14T00:49:08.443Z,100.00
2023-02-14T00:51:52.314Z,100.00
2023-02-14T00:55:16.497Z,100.00
2023-02-14T00:57:59.160Z,100.00
2023-02-14T01:00:30.306Z,100.00
2023-02-14T01:03:01.023Z,100.00
2023-02-14T01:05:32.041Z,100.00
2023-02-14T01:08:01.303Z,100.00
2023-02-14T01:10:30.460Z,100.00
2023-02-14T01:13:01.208Z,100.00
2023-02-14T01:15:30.803Z,100.00
2023-02-14T01:18:02.827Z,100.00
2023-02-14T01:20:32.328Z,100.00
2023-02-14T01:23:01.999Z,100.00
2023-02-14T01:25:31.916Z,100.00
2023-02-14T01:28:02.220Z,100.00
2023-02-14T01:30:31.849Z,100.00
2023-02-14T01:33:02.711Z,100.00
2023-02-14T01:35:32.122Z,100.00
2023-02-14T01:38:01.141Z,100.00
2023-02-14T01:40:30.388Z,100.00
2023-02-14T01:42:59.443Z,100.00
2023-02-14T01:45:29.962Z,100.00
2023-02-14T01:47:59.941Z,100.00
2023-02-14T01:50:34.885Z,100.00
2023-02-14T01:53:07.704Z,100.00
2023-02-14T01:55:43.187Z,100.00
2023-02-14T01:58:15.824Z,100.00
2023-02-14T02:01:01.166Z,100.00
2023-02-14T02:03:35.379Z,100.00
2023-02-14T02:06:12.465Z,100.00
2023-02-14T02:08:49.650Z,100.00
2023-02-14T02:11:19.015Z,100.00
2023-02-14T02:13:49.730Z,100.00
2023-02-14T02:16:38.104Z,100.00
2023-02-14T02:19:33.157Z,100.00
2023-02-14T02:22:31.517Z,100.00
2023-02-14T02:25:13.714Z,100.00
2023-02-14T02:28:02.936Z,100.00
2023-02-14T02:31:08.185Z,100.00
2023-02-14T02:34:02.327Z,100.00
2023-02-14T02:36:44.876Z,100.00
2023-02-14T02:39:25.474Z,100.00
2023-02-14T02:42:07.297Z,100.00
2023-02-14T02:44:46.814Z,100.00
2023-02-14T02:47:23.217Z,100.00
2023-02-14T02:50:16.800Z,100.00
2023-02-14T02:53:06.475Z,100.00
2023-02-14T02:56:03.338Z,100.00
2023-02-14T02:58:40.279Z,100.00
2023-02-14T03:01:13.244Z,100.00
2023-02-14T03:04:04.331Z,100.00
2023-02-14T03:06:34.487Z,100.00
2023-02-14T03:09:13.878Z,100.00
2023-02-14T03:11:50.356Z,100.00
2023-02-14T03:14:29.842Z,100.00
2023-02-14T03:17:08.252Z,100.00
2023-02-14T03:20:16.188Z,100.00
2023-02-14T03:22:52.889Z,100.00
2023-02-14T03:25:35.072Z,100.00
2023-02-14T03:28:14.782Z,100.00
2023-02-14T03:30:53.343Z,100.00
2023-02-14T03:33:29.073Z,100.00
2023-02-14T03:36:03.374Z,100.00
2023-02-14T03:38:37.759Z,100.00
2023-02-14T03:41:13.068Z,100.00
2023-02-14T03:43:46.755Z,100.00
2023-02-14T03:46:21.411Z,100.00
2023-02-14T03:48:54.489Z,100.00
2023-02-14T03:51:25.768Z,100.00
2023-02-14T03:53:59.270Z,100.00
2023-02-14T03:56:36.973Z,100.00
2023-02-14T03:59:11.980Z,100.00
2023-02-14T04:01:47.643Z,100.00
2023-02-14T04:04:19.529Z,100.00
2023-02-14T04:06:49.077Z,100.00
2023-02-14T04:09:18.337Z,100.00
2023-02-14T04:11:50.551Z,100.00
2023-02-14T04:14:19.680Z,100.00
2023-02-14T04:17:06.402Z,100.00
2023-02-14T04:19:35.837Z,100.00
2023-02-14T04:22:05.124Z,100.00
2023-02-14T04:24:34.292Z,100.00
2023-02-14T04:27:13.765Z,100.00
2023-02-14T04:29:46.815Z,100.00
2023-02-14T04:32:18.816Z,100.00
2023-02-14T04:34:48.568Z,100.00
2023-02-14T04:37:20.463Z,100.00
2023-02-14T04:39:49.862Z,100.00
2023-02-14T04:42:20.683Z,100.00
2023-02-14T04:44:49.809Z,100.00
2023-02-14T04:47:19.194Z,100.00
2023-02-14T04:49:48.486Z,100.00
2023-02-14T04:52:17.895Z,100.00
2023-02-14T04:54:48.853Z,100.00
2023-02-14T04:57:18.144Z,100.00
2023-02-14T04:59:48.398Z,100.00
2023-02-14T05:02:17.487Z,100.00
2023-02-14T05:04:48.812Z,100.00
2023-02-14T05:07:19.009Z,100.00
2023-02-14T05:09:48.165Z,100.00
2023-02-14T05:12:17.574Z,100.00
2023-02-14T05:14:48.348Z,100.00
2023-02-14T05:17:17.659Z,100.00
2023-02-14T05:19:46.698Z,100.00
2023-02-14T05:22:18.354Z,100.00
2023-02-14T05:24:47.750Z,100.00
2023-02-14T05:27:16.902Z,100.00
2023-02-14T05:29:46.206Z,100.00
2023-02-14T05:32:16.915Z,100.00
2023-02-14T05:34:46.153Z,100.00
2023-02-14T05:37:15.632Z,100.00
2023-02-14T05:39:45.970Z,100.00
2023-02-14T05:42:15.507Z,100.00
2023-02-14T05:44:45.371Z,100.00
2023-02-14T05:47:14.496Z,100.00
2023-02-14T05:49:45.218Z,100.00
2023-02-14T05:52:14.545Z,100.00
2023-02-14T05:54:44.050Z,100.00
2023-02-14T05:57:13.458Z,100.00
2023-02-14T05:59:43.257Z,100.00
2023-02-14T06:02:14.243Z,100.00
2023-02-14T06:04:45.056Z,100.00
2023-02-14T06:07:14.095Z,100.00
2023-02-14T06:09:43.627Z,100.00
2023-02-14T06:12:12.844Z,100.00
2023-02-14T06:14:43.029Z,100.00
2023-02-14T06:17:13.194Z,100.00
2023-02-14T06:19:43.580Z,100.00
2023-02-14T06:22:14.252Z,100.00
2023-02-14T06:24:43.629Z,100.00
2023-02-14T06:27:13.244Z,100.00
2023-02-14T06:29:42.376Z,100.00
2023-02-14T06:32:11.899Z,100.00
2023-02-14T06:34:41.844Z,100.00
2023-02-14T06:37:11.407Z,100.00
2023-02-14T06:39:42.071Z,100.00
2023-02-14T06:42:11.230Z,100.00
2023-02-14T06:44:40.368Z,100.00
2023-02-14T06:47:09.709Z,100.00
2023-02-14T06:49:39.498Z,100.00
2023-02-14T06:52:08.891Z,100.00
2023-02-14T06:54:38.106Z,100.00
2023-02-14T06:57:08.858Z,100.00
2023-02-14T06:59:38.545Z,100.00
2023-02-14T07:02:07.926Z,100.00
2023-02-14T07:04:37.141Z,100.00
2023-02-14T07:07:06.399Z,100.00
2023-02-14T07:09:35.890Z,100.00
2023-02-14T07:12:05.541Z,100.00
2023-02-14T07:14:36.527Z,100.00
2023-02-14T07:17:05.676Z,100.00
2023-02-14T07:19:35.086Z,100.00
2023-02-14T07:22:05.512Z,100.00
2023-02-14T07:24:34.605Z,100.00
2023-02-14T07:27:04.111Z,100.00
2023-02-14T07:29:33.591Z,100.00
2023-02-14T07:32:04.559Z,100.00
2023-02-14T07:34:34.268Z,100.00
2023-02-14T07:37:03.650Z,100.00
2023-02-14T07:39:33.650Z,100.00
2023-02-14T07:42:03.285Z,100.00
2023-02-14T07:44:32.291Z,100.00
2023-02-14T07:47:03.260Z,100.00
2023-02-14T07:49:32.731Z,100.00
2023-02-14T07:52:02.234Z,100.00
2023-02-14T07:54:31.472Z,100.00
2023-02-14T07:57:00.886Z,100.00
2023-02-14T07:59:30.251Z,100.00
2023-02-14T08:01:59.348Z,100.00
2023-02-14T08:04:32.874Z,100.00
2023-02-14T08:07:03.174Z,100.00
2023-02-14T08:09:32.563Z,100.00
2023-02-14T08:12:20.593Z,100.00
2023-02-14T08:14:49.835Z,100.00
2023-02-14T08:17:19.332Z,100.00
2023-02-14T08:19:50.030Z,100.00
2023-02-14T08:22:19.522Z,100.00
2023-02-14T08:24:48.944Z,100.00
2023-02-14T08:27:18.647Z,100.00
2023-02-14T08:29:47.817Z,100.00
2023-02-14T08:32:21.019Z,100.00
2023-02-14T08:34:52.223Z,100.00
2023-02-14T08:37:22.075Z,100.00
2023-02-14T08:39:52.154Z,100.00
2023-02-14T08:42:22.191Z,100.00
2023-02-14T08:44:52.867Z,100.00
2023-02-14T08:47:22.825Z,100.00
2023-02-14T08:49:54.247Z,100.00
2023-02-14T08:52:23.646Z,100.00
2023-02-14T08:54:53.096Z,100.00
2023-02-14T08:57:22.498Z,100.00
2023-02-14T08:59:52.248Z,100.00
2023-02-14T09:02:21.920Z,100.00
2023-02-14T09:04:51.464Z,100.00
2023-02-14T09:07:22.333Z,100.00
2023-02-14T09:09:51.478Z,100.00
2023-02-14T09:12:21.068Z,100.00
2023-02-14T09:14:50.966Z,100.00
2023-02-14T09:17:21.075Z,100.00
2023-02-14T09:19:50.680Z,100.00
2023-02-14T09:22:22.113Z,100.00
2023-02-14T09:24:51.633Z,100.00
2023-02-14T09:27:20.932Z,100.00
2023-02-14T09:29:50.374Z,100.00
2023-02-14T09:32:19.573Z,100.00
2023-02-14T09:34:49.202Z,100.00
2023-02-14T09:37:36.099Z,100.00
2023-02-14T09:40:08.006Z,100.00
2023-02-14T09:42:50.407Z,100.00
2023-02-14T09:45:22.946Z,100.00
2023-02-14T09:47:57.574Z,100.00
2023-02-14T09:50:31.670Z,100.00
2023-02-14T09:53:04.365Z,100.00
2023-02-14T09:55:44.494Z,100.00
2023-02-14T09:58:19.350Z,100.00
2023-02-14T10:01:01.238Z,100.00
2023-02-14T10:03:55.946Z,100.00
2023-02-14T10:06:39.985Z,100.00
2023-02-14T10:09:20.250Z,100.00
2023-02-14T10:11:51.919Z,100.00
2023-02-14T10:14:24.704Z,100.00
2023-02-14T10:16:57.490Z,100.00
2023-02-14T10:19:29.910Z,100.00
2023-02-14T10:22:02.526Z,100.00
2023-02-14T10:24:35.085Z,98.26
2023-02-14T10:27:14.466Z,100.00
2023-02-14T10:29:44.511Z,97.96
2023-02-14T10:32:16.872Z,96.53
2023-02-14T10:34:49.837Z,90.05
2023-02-14T10:37:42.459Z,82.88
2023-02-14T10:40:35.584Z,62.82
2023-02-14T10:43:18.112Z,60.85
2023-02-14T10:45:55.526Z,60.89
2023-02-14T10:48:32.687Z,62.52
2023-02-14T10:51:07.997Z,63.49
2023-02-14T10:53:45.617Z,71.17
2023-02-14T10:56:23.242Z,70.75
2023-02-14T10:58:57.214Z,73.90
2023-02-14T11:01:26.829Z,76.51
2023-02-14T11:04:03.772Z,75.51
2023-02-14T11:06:34.278Z,77.26
2023-02-14T11:09:04.546Z,58.41
2023-02-14T11:11:38.955Z,65.94
2023-02-14T11:14:24.028Z,71.69
2023-02-14T11:16:55.771Z,72.69
2023-02-14T11:19:28.369Z,64.90
2023-02-14T11:21:59.328Z,75.24
2023-02-14T11:24:33.795Z,79.38
2023-02-14T11:27:05.927Z,78.69
2023-02-14T11:29:43.435Z,63.15
2023-02-14T11:32:16.465Z,54.93
2023-02-14T11:34:52.878Z,54.20
2023-02-14T11:37:31.609Z,58.03
2023-02-14T11:40:02.767Z,61.19
2023-02-14T11:42:40.143Z,66.10
2023-02-14T11:45:28.960Z,72.23
2023-02-14T11:48:24.847Z,72.69
2023-02-14T11:51:04.456Z,74.86
2023-02-14T11:53:45.871Z,78.34
2023-02-14T11:56:16.813Z,76.83
2023-02-14T11:58:51.712Z,80.70
2023-02-14T12:01:27.648Z,75.93
2023-02-14T12:04:01.231Z,76.88
2023-02-14T12:06:32.554Z,74.60
2023-02-14T12:09:25.091Z,72.10
2023-02-14T12:11:57.694Z,76.57
2023-02-14T12:14:30.131Z,74.97
2023-02-14T12:17:06.050Z,71.73
2023-02-14T12:19:43.876Z,68.28
2023-02-14T12:22:18.360Z,75.26
2023-02-14T12:24:58.410Z,75.25
2023-02-14T12:27:31.728Z,74.26
2023-02-14T12:30:05.496Z,69.67
2023-02-14T12:32:36.657Z,86.91
2023-02-14T12:35:16.423Z,89.40
2023-02-14T12:38:04.390Z,90.58
2023-02-14T12:40:45.629Z,95.75
2023-02-14T12:43:34.648Z,100.00
2023-02-14T12:46:39.090Z,64.67
2023-02-14T12:49:33.228Z,67.61
2023-02-14T12:52:14.923Z,76.54
2023-02-14T12:55:00.235Z,91.47
2023-02-14T12:57:41.277Z,87.20
2023-02-14T13:00:23.412Z,87.49
2023-02-14T13:03:22.556Z,97.07
2023-02-14T13:06:01.894Z,100.00
2023-02-14T13:08:47.891Z,97.27
2023-02-14T13:11:30.251Z,96.53
2023-02-14T13:14:06.033Z,91.44
2023-02-14T13:16:42.926Z,96.88
2023-02-14T13:19:29.934Z,95.42
2023-02-14T13:22:02.568Z,94.23
2023-02-14T13:24:39.607Z,88.37
2023-02-14T13:27:14.220Z,93.21
2023-02-14T13:29:48.307Z,91.50
2023-02-14T13:32:22.414Z,86.63
2023-02-14T13:34:52.560Z,89.59
2023-02-14T13:37:27.254Z,89.49
2023-02-14T13:40:01.414Z,90.00
2023-02-14T13:42:58.573Z,90.09
2023-02-14T13:45:53.829Z,78.50
2023-02-14T13:48:25.845Z,80.97
2023-02-14T13:50:58.564Z,90.22
2023-02-14T13:53:38.579Z,88.81
2023-02-14T13:56:32.710Z,85.11
2023-02-14T13:59:05.538Z,72.27
2023-02-14T14:01:40.620Z,82.65
2023-02-14T14:04:38.132Z,86.46
2023-02-14T14:07:30.218Z,88.59
2023-02-14T14:10:03.279Z,89.29
2023-02-14T14:12:40.299Z,88.83
2023-02-14T14:15:20.533Z,92.94
2023-02-14T14:18:23.090Z,100.00
2023-02-14T14:20:52.661Z,100.00
2023-02-14T14:23:33.883Z,100.00
2023-02-14T14:26:25.127Z,100.00
2023-02-14T14:28:56.112Z,100.00
2023-02-14T14:31:25.885Z,100.00
2023-02-14T14:34:00.555Z,100.00
2023-02-14T14:36:30.195Z,98.51
2023-02-14T14:38:59.569Z,95.43
2023-02-14T14:41:32.727Z,89.72
2023-02-14T14:44:02.290Z,86.46
2023-02-14T14:46:32.483Z,83.90
2023-02-14T14:49:02.414Z,84.17
2023-02-14T14:51:35.343Z,83.85
2023-02-14T14:54:07.053Z,84.27
2023-02-14T14:56:47.103Z,84.51
2023-02-14T14:59:27.663Z,84.95
2023-02-14T15:01:57.482Z,84.57
2023-02-14T15:04:29.635Z,81.76
2023-02-14T15:07:18.613Z,81.20
2023-02-14T15:09:48.710Z,80.21
2023-02-14T15:12:41.781Z,80.25
2023-02-14T15:15:13.308Z,78.66
2023-02-14T15:17:44.750Z,78.49
2023-02-14T15:20:18.649Z,77.56
2023-02-14T15:22:50.897Z,77.03
2023-02-14T15:25:21.954Z,76.24
2023-02-14T15:27:52.640Z,76.30
2023-02-14T15:30:31.049Z,76.90
2023-02-14T15:33:01.709Z,77.40
2023-02-14T15:35:33.712Z,78.61
2023-02-14T15:38:07.366Z,78.90
2023-02-14T15:40:39.121Z,78.13
2023-02-14T15:43:25.044Z,77.96
2023-02-14T15:45:58.448Z,78.35
2023-02-14T15:48:30.394Z,79.47
2023-02-14T15:51:01.601Z,82.11
2023-02-14T15:53:41.376Z,84.78
2023-02-14T15:56:14.583Z,86.01
2023-02-14T15:58:45.689Z,87.13
2023-02-14T16:01:15.453Z,92.07
2023-02-14T16:03:52.132Z,99.30
2023-02-14T16:06:36.930Z,99.88
2023-02-14T16:09:09.241Z,97.74
2023-02-14T16:11:39.992Z,99.26
2023-02-14T16:14:30.790Z,97.99
2023-02-14T16:17:06.036Z,98.15
2023-02-14T16:19:38.393Z,96.96
2023-02-14T16:22:08.250Z,97.52
2023-02-14T16:24:38.302Z,93.92
2023-02-14T16:27:13.336Z,91.94
2023-02-14T16:29:43.874Z,92.24
2023-02-14T16:32:20.018Z,92.65
2023-02-14T16:34:49.904Z,91.70
2023-02-14T16:37:23.126Z,92.00
2023-02-14T16:39:57.850Z,90.32
2023-02-14T16:42:27.401Z,89.84
2023-02-14T16:44:58.975Z,89.03
2023-02-14T16:47:28.699Z,89.88
2023-02-14T16:49:58.154Z,91.97
2023-02-14T16:52:30.053Z,91.50
2023-02-14T16:54:59.755Z,89.78
2023-02-14T16:57:33.347Z,90.44
2023-02-14T17:00:07.022Z,92.91
2023-02-14T17:02:36.426Z,93.48
2023-02-14T17:05:05.991Z,94.55
2023-02-14T17:07:46.608Z,95.33
2023-02-14T17:10:21.531Z,98.07
2023-02-14T17:12:52.272Z,100.00
2023-02-14T17:15:25.092Z,100.00
2023-02-14T17:17:57.590Z,100.00
2023-02-14T17:20:26.764Z,100.00
2023-02-14T17:22:56.763Z,100.00
2023-02-14T17:25:26.874Z,100.00
2023-02-14T17:27:57.291Z,100.00
2023-02-14T17:30:28.865Z,100.00
2023-02-14T17:32:59.380Z,100.00
2023-02-14T17:35:29.034Z,100.00
2023-02-14T17:37:58.541Z,100.00
2023-02-14T17:40:29.020Z,100.00
2023-02-14T17:42:58.664Z,100.00
2023-02-14T17:45:29.721Z,100.00
2023-02-14T17:47:59.374Z,100.00
2023-02-14T17:50:28.831Z,100.00
2023-02-14T17:52:58.348Z,100.00
2023-02-14T17:55:30.136Z,100.00
2023-02-14T17:57:59.963Z,100.00
2023-02-14T18:00:30.578Z,100.00
2023-02-14T18:02:59.607Z,100.00
2023-02-14T18:05:29.272Z,100.00
2023-02-14T18:07:59.008Z,100.00
2023-02-14T18:10:28.526Z,100.00
2023-02-14T18:12:57.494Z,100.00
2023-02-14T18:15:27.937Z,100.00
2023-02-14T18:17:59.165Z,100.00
2023-02-14T18:20:28.296Z,100.00
2023-02-14T18:22:57.826Z,100.00
2023-02-14T18:25:27.493Z,100.00
2023-02-14T18:28:05.896Z,100.00
2023-02-14T18:30:36.039Z,100.00
2023-02-14T18:33:07.570Z,100.00
2023-02-14T18:35:37.078Z,100.00
2023-02-14T18:38:08.082Z,100.00
2023-02-14T18:40:38.572Z,100.00
2023-02-14T18:43:08.583Z,100.00
2023-02-14T18:45:39.265Z,100.00
2023-02-14T18:48:10.129Z,100.00
2023-02-14T18:50:39.503Z,100.00
2023-02-14T18:53:09.097Z,100.00
2023-02-14T18:55:38.847Z,100.00
2023-02-14T18:58:09.122Z,100.00
2023-02-14T19:00:38.516Z,100.00
2023-02-14T19:03:07.814Z,100.00
2023-02-14T19:05:40.248Z,100.00
2023-02-14T19:08:10.082Z,100.00
2023-02-14T19:10:39.584Z,100.00
2023-02-14T19:13:09.314Z,100.00
2023-02-14T19:15:39.025Z,100.00
2023-02-14T19:18:08.718Z,100.00
2023-02-14T19:20:39.730Z,100.00
2023-02-14T19:23:09.455Z,100.00
2023-02-14T19:25:38.933Z,100.00
2023-02-14T19:28:08.519Z,100.00
2023-02-14T19:30:38.305Z,100.00
2023-02-14T19:33:08.298Z,100.00
2023-02-14T19:35:39.504Z,100.00
2023-02-14T19:38:10.327Z,100.00
2023-02-14T19:40:45.142Z,100.00
2023-02-14T19:43:16.015Z,100.00
2023-02-14T19:45:46.317Z,100.00
2023-02-14T19:48:20.005Z,100.00
2023-02-14T19:50:51.128Z,100.00
2023-02-14T19:53:20.617Z,100.00
2023-02-14T19:55:52.494Z,100.00
2023-02-14T19:58:22.858Z,100.00
2023-02-14T20:00:58.794Z,100.00
2023-02-14T20:03:29.675Z,100.00
2023-02-14T20:06:00.821Z,100.00
2023-02-14T20:08:30.501Z,100.00
2023-02-14T20:11:00.956Z,100.00
2023-02-14T20:13:31.024Z,100.00
2023-02-14T20:16:01.984Z,100.00
2023-02-14T20:18:31.896Z,100.00
2023-02-14T20:21:05.412Z,100.00
2023-02-14T20:23:35.637Z,100.00
2023-02-14T20:26:05.316Z,100.00
2023-02-14T20:28:34.897Z,100.00
2023-02-14T20:31:08.820Z,100.00
2023-02-14T20:33:50.275Z,100.00
2023-02-14T20:36:21.736Z,100.00
2023-02-14T20:38:56.908Z,100.00
2023-02-14T20:41:27.703Z,100.00
2023-02-14T20:44:04.366Z,100.00
2023-02-14T20:46:34.739Z,100.00
2023-02-14T20:49:05.770Z,100.00
2023-02-14T20:51:37.760Z,100.00
2023-02-14T20:54:07.456Z,100.00
2023-02-14T20:56:39.733Z,100.00
2023-02-14T20:59:09.744Z,100.00
2023-02-14T21:01:39.690Z,100.00
2023-02-14T21:04:09.657Z,100.00
2023-02-14T21:06:40.307Z,100.00
2023-02-14T21:09:09.761Z,100.00
2023-02-14T21:11:39.370Z,100.00
2023-02-14T21:14:09.222Z,100.00
2023-02-14T21:16:40.373Z,100.00
2023-02-14T21:19:09.918Z,100.00
2023-02-14T21:21:40.980Z,100.00
2023-02-14T21:24:15.814Z,100.00
2023-02-14T21:26:46.058Z,100.00
2023-02-14T21:29:15.539Z,100.00
2023-02-14T21:31:45.167Z,100.00
2023-02-14T21:34:16.223Z,100.00
2023-02-14T21:36:46.950Z,100.00
2023-02-14T21:39:16.833Z,100.00
2023-02-14T21:41:46.234Z,100.00
2023-02-14T21:44:40.143Z,100.00
2023-02-14T21:47:09.290Z,100.00
2023-02-14T21:49:55.689Z,100.00
2023-02-14T21:52:26.086Z,100.00
2023-02-14T21:54:55.117Z,100.00
2023-02-14T21:57:24.492Z,100.00
2023-02-14T21:59:53.897Z,100.00
2023-02-14T22:02:23.245Z,100.00
2023-02-14T22:04:52.686Z,100.00
2023-02-14T22:07:22.150Z,100.00
2023-02-14T22:09:52.861Z,100.00
2023-02-14T22:12:22.736Z,100.00
2023-02-14T22:14:52.132Z,100.00
2023-02-14T22:17:21.344Z,100.00
2023-02-14T22:19:50.870Z,100.00
2023-02-14T22:22:20.239Z,100.00
2023-02-14T22:24:51.725Z,100.00
2023-02-14T22:27:40.046Z,100.00
2023-02-14T22:30:22.927Z,100.00
2023-02-14T22:32:53.520Z,100.00
2023-02-14T22:35:22.496Z,100.00
2023-02-14T22:38:38.316Z,100.00
2023-02-14T22:41:26.130Z,100.00
2023-02-14T22:43:57.431Z,100.00
2023-02-14T22:47:12.157Z,100.00
2023-02-14T22:49:43.480Z,100.00
2023-02-14T22:52:12.667Z,100.00
2023-02-14T22:54:41.860Z,100.00
2023-02-14T22:57:10.882Z,100.00
2023-02-14T22:59:41.409Z,100.00
2023-02-14T23:02:12.046Z,100.00
2023-02-14T23:04:41.630Z,100.00
2023-02-14T23:07:12.068Z,100.00
2023-02-14T23:09:41.073Z,100.00
2023-02-14T23:12:30.496Z,100.00
2023-02-14T23:15:18.461Z,100.00
2023-02-14T23:18:05.274Z,100.00
2023-02-14T23:20:51.956Z,100.00
2023-02-14T23:23:20.871Z,100.00
2023-02-14T23:25:50.026Z,100.00
2023-02-14T23:28:19.067Z,100.00
2023-02-14T23:30:49.381Z,100.00
2023-02-14T23:33:18.347Z,100.00
2023-02-14T23:35:47.244Z,100.00
2023-02-14T23:38:16.173Z,100.00
2023-02-14T23:41:02.822Z,100.00
2023-02-14T23:43:31.795Z,100.00
2023-02-14T23:46:02.475Z,100.00
2023-02-14T23:48:31.828Z,100.00
2023-02-14T23:51:01.498Z,100.00
2023-02-14T23:53:30.722Z,100.00
2023-02-14T23:56:03.459Z,100.00
2023-02-14T23:58:32.599Z,100.00
